Tunnel City, WI

10:37 AM CST on November 20, 2019 (GMT -0600)
Tomah | | Change Station
Active Advisory: Dense Fog Advisory

Elev 1020 ft 43.97 °N, 90.55 °W | Updated 46 minutes ago

Overcast
Overcast
37.6 °F
Feels Like 38 °F
N
0
Wind Variable Wind from WSW
Gusts 2.0 mph

Today
High -- | Low -- °F
--% Chance of Precip.
Yesterday
High -- | Low -- °F
Precip. -- in
Pressure 30.12 in
Visibility 10.0 miles
Clouds Overcast 400 ft
Windchill 38 °F
Dew Point 38 °F
Humidity 100%
Rainfall 0.00 in
Snow Depth Not available.
7:03 AM 4:31 PM
Last Quarter, 41% visible
METAR KCMY 201615Z AUTO 16003KT 10SM OVC004 01/01 A3012 RMK AO2 T00120012
Pressure 30.12 in
Visibility 10.0 miles
Clouds Overcast 400 ft
Windchill 38 °F
Dew Point 38 °F
Humidity 100%
Rainfall 0.00 in
Snow Depth Not available.
7:03 AM 4:31 PM
Last Quarter, 41% visible
METAR KCMY 201615Z AUTO 16003KT 10SM OVC004 01/01 A3012 RMK AO2 T00120012

Get Your Daily Forecast Email!

Thanks for signing up!

Be on the lookout for a verification email in your inbox.

You'll start receiving severe weather alerts in your inbox..

×

10-Day Weather Forecast

Almanac

Astronomy

Nov. 20, 2019 Rise Set
Actual Time
Civil Twilight
Nautical Twilight
Astronomical Twilight
Moon
Length of Visible Light
Length of Day
Tomorrow will be .
, % of the Moon is Illuminated

Today's Extremes

State Highs State Lows

Community

WunderPhotos

Category 6

Welcome to Category 6. This is the collective home for Weather Underground's featured writeups by Dr. Jeff Masters (right), Bob Henson (left), Chris Burt, and other regular contributors.

Nearby

Air Quality

  Air Quality AQ Index Pollutant
Not available.

Snow Depth

Station Depth Elevation

Earthquake Activity

City Distance Mag. Time & Date
Minimum magnitude displayed is 2.5.

Coastal Water Temperatures

Place Temperature

Stations

Nearby Weather Stations

Station Location Temp. Windchill Dew Point Humidity Wind Precip. Elev Updated Type
                   

Watches & Warnings

Dense Fog Advisory
Issued: 8:43 AM CST Nov. 20, 2019 – National Weather Service

... Dense fog advisory now in effect until noon CST today...

* what... visibility one quarter mile or less in dense fog.

* Where... much of central, north central, southwest and west
central Wisconsin.

* When... until noon CST today.

* Impacts... hazardous driving conditions due to low visibility.
In addition, there may be a few slick spots in north central
Wisconsin where temperatures remain near freezing.

Precautionary/preparedness actions...

If driving, slow down, use your headlights, and leave plenty of
distance ahead of you.